Terminal Aerodrome Forecast
Issued by NWS

Current Version | Previous Version | Text Only | Print | Product List | Glossary On
Versions: 1 2 3 4 5 6 7 8 9 10 11 12 13 14 15 16 17 18 19 20 21 22 23
000
FTUS43 KEAX 240600 AAA
TAFSTJ
TAF AMD
KSTJ 240643Z 2407/2506 19004KT 1/2SM FG BKN007
     FM241600 21011KT P6SM SCT025
     FM242300 23005KT P6SM SKC
      TEMPO 2502/2506 1/2SM FG=

USA.gov is the U.S. government's official web portal to all federal, state and local government web resources and services.